map of KOI home
KOI - Airport
Location
City:  Kirkwall, Orkney Isles, Scotland, United Kingdom
Name:Kirkwall Airport
ICAO:EGPA
IATA:KOI

Details
Type:Airport (Aerodrome, Airfield)
Use:Public/Civil
Latitude:5857'28"N (58.957778)
Longitude:254'18"W (-2.904999)
Datum:WGS 1984
Elevation:50 ft (15 m)
Variation:2.63W (WMM2015 magnetic declination)
0.19 annual change
Runways:3
Longest:4685 × 151 ft (1428 × 46 m), paved

Time
Time Zone:UTC+0 (DST+1)
Local Time:

Weather
METAR:EGPA 111450Z 29003KT 9999 VCSH FEW015CB FEW025 SCT035 03/01 Q0993

Related Locations
Nearby:
Farthest:SZS: 11518 mi / 18537 km
Ryan's Creek, Stewart Island, STL, NZ

Find:

   beyond  
but within

Other Information
Maps:
NOTAMs:
Links:
Sources:

  
flag of United Kingdom
flag of Scotland
flag of Orkney Isles
  

Sectional Chart

Flight Planning
at skyvector.com

Satellite Image

Google Maps Satellite view

 

Copyright © 2004-2017 Karl L. Swartz. All rights reserved.
The Great Circle Mapper name and logo are trademarks of the Great Circle Mapper.
All other trademarks mentioned herein belong to their respective owners.
Please see credits for attibutions and further copyright information.

  Follow gcmap on Facebook Follow gcmap on Twitter Follow gcmap on Google+ GCmap on LinkedIn

hCard Microformat

Geo Microformat